createdAt,value
2023-01-18T00:00:53.567Z,11.23
2023-01-18T00:01:56.095Z,10.75
2023-01-18T00:02:59.912Z,8.13
2023-01-18T00:04:08.791Z,10.48
2023-01-18T00:05:12.306Z,9.98
2023-01-18T00:06:14.969Z,9.48
2023-01-18T00:07:18.446Z,14.95
2023-01-18T00:08:21.033Z,11.88
2023-01-18T00:09:30.810Z,14.73
2023-01-18T00:10:33.356Z,13.95
2023-01-18T00:11:36.775Z,16.30
2023-01-18T00:12:39.263Z,16.60
2023-01-18T00:13:48.848Z,13.13
2023-01-18T00:14:51.449Z,18.63
2023-01-18T00:15:56.193Z,17.60
2023-01-18T00:17:04.794Z,16.65
2023-01-18T00:18:08.301Z,15.00
2023-01-18T00:19:19.815Z,15.15
2023-01-18T00:20:24.674Z,14.55
2023-01-18T00:21:28.529Z,14.32
2023-01-18T00:22:32.065Z,14.02
2023-01-18T00:23:40.836Z,11.13
2023-01-18T00:24:44.263Z,14.00
2023-01-18T00:25:55.056Z,18.52
2023-01-18T00:27:11.819Z,17.52
2023-01-18T00:28:14.293Z,13.48
2023-01-18T00:29:23.801Z,10.32
2023-01-18T00:30:27.325Z,13.07
2023-01-18T00:31:32.230Z,12.38
2023-01-18T00:32:35.160Z,11.57
2023-01-18T00:33:45.868Z,11.30
2023-01-18T00:34:50.576Z,12.90
2023-01-18T00:35:56.854Z,14.02
2023-01-18T00:37:00.393Z,12.48
2023-01-18T00:38:02.981Z,12.05
2023-01-18T00:39:14.825Z,12.32
2023-01-18T00:40:17.468Z,11.52
2023-01-18T00:41:27.820Z,13.73
2023-01-18T00:42:48.891Z,12.88
2023-01-18T00:43:51.972Z,15.10
2023-01-18T00:44:55.526Z,15.02
2023-01-18T00:45:58.110Z,14.52
2023-01-18T00:47:09.808Z,17.35
2023-01-18T00:48:12.284Z,17.75
2023-01-18T00:49:15.685Z,17.65
2023-01-18T00:50:19.655Z,18.60
2023-01-18T00:51:29.820Z,14.27
2023-01-18T00:52:40.859Z,15.65
2023-01-18T00:53:50.060Z,18.10
2023-01-18T00:54:53.502Z,17.95
2023-01-18T00:55:56.266Z,16.23
2023-01-18T00:56:59.809Z,16.92
2023-01-18T00:58:08.797Z,13.77
2023-01-18T00:59:12.236Z,15.30
2023-01-18T01:00:15.390Z,14.48
2023-01-18T01:01:25.894Z,20.00
2023-01-18T01:02:29.771Z,20.17
2023-01-18T01:03:53.399Z,20.13
2023-01-18T01:05:17.813Z,14.93
2023-01-18T01:06:40.664Z,14.70
2023-01-18T01:07:43.147Z,15.88
2023-01-18T01:08:56.875Z,15.23
2023-01-18T01:09:59.674Z,15.52
2023-01-18T01:11:07.381Z,16.65
2023-01-18T01:12:28.423Z,18.00
2023-01-18T01:13:49.671Z,12.18
2023-01-18T01:15:17.823Z,13.48
2023-01-18T01:16:39.203Z,17.13
2023-01-18T01:18:01.527Z,14.15
2023-01-18T01:19:28.818Z,14.95
2023-01-18T01:20:55.817Z,21.15
2023-01-18T01:22:16.770Z,18.33
2023-01-18T01:23:38.790Z,16.08
2023-01-18T01:25:06.830Z,20.40
2023-01-18T01:26:30.813Z,17.92
2023-01-18T01:27:34.275Z,14.48
2023-01-18T01:28:36.862Z,19.23
2023-01-18T01:29:40.583Z,18.42
2023-01-18T01:30:50.884Z,18.67
2023-01-18T01:31:54.417Z,20.73
2023-01-18T01:32:58.667Z,18.38
2023-01-18T01:34:02.256Z,16.90
2023-01-18T01:35:04.925Z,15.00
2023-01-18T01:36:15.852Z,14.82
2023-01-18T01:37:18.333Z,15.57
2023-01-18T01:38:21.749Z,17.25
2023-01-18T01:39:24.581Z,18.33
2023-01-18T01:40:28.081Z,15.75
2023-01-18T01:41:37.829Z,19.00
2023-01-18T01:42:41.229Z,19.13
2023-01-18T01:43:45.058Z,20.48
2023-01-18T01:44:51.300Z,16.85
2023-01-18T01:45:53.871Z,14.35
2023-01-18T01:47:04.823Z,16.85
2023-01-18T01:48:11.685Z,18.05
2023-01-18T01:49:16.578Z,17.20
2023-01-18T01:50:22.572Z,14.73
2023-01-18T01:51:25.120Z,17.75
2023-01-18T01:52:36.821Z,15.02
2023-01-18T01:53:39.478Z,12.70
2023-01-18T01:54:45.507Z,13.55
2023-01-18T01:55:54.830Z,25.13
2023-01-18T01:56:59.704Z,18.83
2023-01-18T01:58:03.322Z,17.30
2023-01-18T01:59:13.834Z,17.17
2023-01-18T02:00:19.555Z,14.95
2023-01-18T02:01:23.162Z,18.30
2023-01-18T02:02:26.015Z,18.75
2023-01-18T02:03:38.829Z,18.20
2023-01-18T02:04:44.281Z,17.88
2023-01-18T02:05:49.753Z,18.42
2023-01-18T02:06:53.345Z,15.57
2023-01-18T02:08:03.836Z,14.88
2023-01-18T02:09:07.711Z,17.10
2023-01-18T02:10:11.985Z,14.60
2023-01-18T02:11:20.836Z,19.65
2023-01-18T02:12:24.272Z,20.02
2023-01-18T02:13:27.150Z,19.45
2023-01-18T02:14:31.332Z,17.80
2023-01-18T02:15:43.848Z,18.00
2023-01-18T02:16:55.183Z,19.58
2023-01-18T02:18:04.333Z,16.08
2023-01-18T02:19:14.600Z,21.15
2023-01-18T02:20:34.899Z,15.60
2023-01-18T02:21:47.817Z,16.45
2023-01-18T02:23:07.910Z,16.40
2023-01-18T02:24:25.841Z,16.67
2023-01-18T02:25:53.866Z,16.77
2023-01-18T02:27:13.010Z,16.13
2023-01-18T02:28:18.184Z,16.60
2023-01-18T02:29:25.574Z,16.77
2023-01-18T02:30:32.215Z,18.00
2023-01-18T02:31:44.836Z,17.75
2023-01-18T02:32:56.939Z,19.80
2023-01-18T02:34:04.606Z,18.15
2023-01-18T02:35:11.035Z,19.33
2023-01-18T02:36:18.429Z,14.90
2023-01-18T02:37:32.835Z,19.27
2023-01-18T02:38:40.793Z,18.33
2023-01-18T02:39:45.528Z,16.98
2023-01-18T02:40:55.738Z,22.50
2023-01-18T02:42:27.804Z,22.95
2023-01-18T02:43:51.867Z,22.60
2023-01-18T02:45:12.434Z,25.77
2023-01-18T02:46:34.901Z,20.42
2023-01-18T02:47:45.867Z,18.08
2023-01-18T02:48:49.732Z,17.55
2023-01-18T02:49:53.147Z,18.20
2023-01-18T02:50:55.643Z,20.95
2023-01-18T02:52:02.229Z,15.45
2023-01-18T02:53:10.884Z,17.38
2023-01-18T02:54:24.215Z,16.80
2023-01-18T02:55:34.647Z,19.58
2023-01-18T02:56:40.227Z,23.58
2023-01-18T02:57:42.779Z,15.20
2023-01-18T02:58:55.817Z,18.63
2023-01-18T03:00:07.815Z,16.48
2023-01-18T03:01:12.598Z,15.70
2023-01-18T03:02:17.221Z,20.48
2023-01-18T03:03:21.960Z,15.90
2023-01-18T03:04:32.865Z,19.27
2023-01-18T03:05:37.562Z,18.23
2023-01-18T03:06:41.683Z,16.40
2023-01-18T03:07:47.898Z,18.77
2023-01-18T03:08:53.056Z,14.35
2023-01-18T03:10:03.834Z,14.93
2023-01-18T03:11:09.078Z,17.35
2023-01-18T03:12:17.828Z,16.25
2023-01-18T03:13:24.659Z,20.20
2023-01-18T03:14:38.342Z,14.93
2023-01-18T03:15:51.884Z,17.38
2023-01-18T03:17:00.748Z,15.50
2023-01-18T03:18:06.668Z,17.58
2023-01-18T03:19:31.277Z,17.10
2023-01-18T03:20:42.807Z,23.10
2023-01-18T03:21:47.531Z,22.45
2023-01-18T03:23:10.531Z,17.05
2023-01-18T03:24:16.136Z,16.23
2023-01-18T03:25:26.920Z,19.08
2023-01-18T03:26:40.358Z,17.23
2023-01-18T03:28:01.764Z,15.45
2023-01-18T03:29:23.881Z,13.68
2023-01-18T03:30:52.900Z,19.05
2023-01-18T03:32:24.828Z,20.13
2023-01-18T03:33:47.284Z,21.45
2023-01-18T03:34:53.205Z,21.35
2023-01-18T03:35:56.297Z,19.42
2023-01-18T03:37:08.914Z,16.58
2023-01-18T03:38:11.650Z,21.55
2023-01-18T03:39:19.730Z,22.50
2023-01-18T03:40:24.710Z,27.27
2023-01-18T03:41:30.333Z,41.65
2023-01-18T03:42:41.850Z,36.20
2023-01-18T03:43:45.151Z,24.17
2023-01-18T03:44:52.749Z,25.70
2023-01-18T03:45:57.157Z,20.10
2023-01-18T03:47:06.814Z,22.92
2023-01-18T03:48:16.862Z,31.27
2023-01-18T03:49:20.443Z,24.20
2023-01-18T03:50:24.759Z,20.55
2023-01-18T03:51:33.403Z,30.38
2023-01-18T03:52:44.866Z,19.83
2023-01-18T03:53:57.032Z,24.60
2023-01-18T03:55:03.175Z,25.33
2023-01-18T03:56:08.038Z,34.63
2023-01-18T03:57:14.192Z,60.65
2023-01-18T03:58:28.861Z,196.68
2023-01-18T03:59:34.749Z,164.57
2023-01-18T04:00:38.693Z,114.35
2023-01-18T04:01:45.039Z,101.13
2023-01-18T04:02:49.522Z,76.28
2023-01-18T04:03:59.896Z,223.65
2023-01-18T04:05:05.207Z,200.90
2023-01-18T04:06:08.570Z,150.50
2023-01-18T04:07:12.157Z,243.32
2023-01-18T04:08:15.406Z,71.43
2023-01-18T04:09:25.908Z,106.72
2023-01-18T04:10:31.504Z,59.35
2023-01-18T04:11:35.060Z,87.43
2023-01-18T04:12:37.551Z,118.13
2023-01-18T04:13:40.976Z,120.75
2023-01-18T04:14:49.851Z,130.10
2023-01-18T04:15:53.281Z,148.55
2023-01-18T04:16:57.153Z,132.40
2023-01-18T04:18:00.581Z,99.22
2023-01-18T04:19:03.155Z,148.35
2023-01-18T04:20:13.863Z,135.35
2023-01-18T04:21:16.472Z,76.55
2023-01-18T04:22:19.956Z,131.25
2023-01-18T04:23:28.818Z,165.30
2023-01-18T04:24:32.272Z,135.30
2023-01-18T04:25:45.821Z,104.47
2023-01-18T04:27:02.833Z,73.13
2023-01-18T04:28:11.863Z,80.57
2023-01-18T04:29:15.381Z,78.90
2023-01-18T04:30:18.226Z,94.60
2023-01-18T04:31:22.141Z,61.00
2023-01-18T04:32:32.852Z,145.30
2023-01-18T04:33:36.572Z,88.10
2023-01-18T04:34:39.221Z,69.78
2023-01-18T04:35:42.634Z,106.57
2023-01-18T04:36:46.085Z,83.80
2023-01-18T04:37:58.838Z,71.38
2023-01-18T04:39:02.305Z,162.45
2023-01-18T04:40:05.143Z,290.63
2023-01-18T04:41:08.565Z,176.30
2023-01-18T04:42:11.123Z,80.22
2023-01-18T04:43:20.852Z,451.90
2023-01-18T04:44:23.397Z,250.95
2023-01-18T04:45:33.842Z,345.30
2023-01-18T04:46:38.363Z,97.15
2023-01-18T04:47:42.889Z,304.33
2023-01-18T04:48:52.870Z,229.95
2023-01-18T04:50:02.850Z,91.72
2023-01-18T04:51:12.866Z,93.47
2023-01-18T04:52:15.660Z,106.15
2023-01-18T04:53:26.863Z,175.32
2023-01-18T04:54:31.401Z,231.95
2023-01-18T04:55:33.976Z,81.85
2023-01-18T04:56:43.846Z,126.57
2023-01-18T04:57:46.397Z,72.70
2023-01-18T04:58:49.824Z,52.85
2023-01-18T04:59:52.323Z,53.35
2023-01-18T05:01:02.101Z,58.88
2023-01-18T05:02:04.724Z,88.65
2023-01-18T05:03:10.051Z,83.63
2023-01-18T05:04:12.561Z,57.85
2023-01-18T05:05:16.023Z,61.30
2023-01-18T05:06:26.855Z,75.97
2023-01-18T05:07:31.295Z,107.57
2023-01-18T05:08:34.204Z,108.32
2023-01-18T05:09:37.885Z,114.70
2023-01-18T05:10:46.842Z,163.15
2023-01-18T05:11:50.311Z,124.53
2023-01-18T05:12:52.804Z,173.10
2023-01-18T05:13:56.416Z,132.60
2023-01-18T05:14:58.906Z,332.63
2023-01-18T05:16:09.854Z,126.90
2023-01-18T05:17:12.404Z,134.95
2023-01-18T05:18:23.853Z,236.77
2023-01-18T05:19:30.098Z,95.65
2023-01-18T05:20:39.877Z,129.25
2023-01-18T05:21:42.393Z,147.70
2023-01-18T05:22:45.895Z,50.65
2023-01-18T05:23:48.481Z,80.28
2023-01-18T05:24:52.010Z,172.82
2023-01-18T05:26:07.889Z,147.70
2023-01-18T05:27:18.038Z,60.45
2023-01-18T05:28:20.707Z,129.15
2023-01-18T05:29:24.245Z,226.13
2023-01-18T05:30:26.815Z,149.73
2023-01-18T05:31:36.925Z,238.68
2023-01-18T05:32:45.871Z,105.30
2023-01-18T05:33:50.738Z,376.95
2023-01-18T05:34:53.229Z,244.43
2023-01-18T05:35:57.123Z,211.02
2023-01-18T05:37:00.017Z,185.07
2023-01-18T05:38:10.211Z,120.93
2023-01-18T05:39:13.641Z,60.88
2023-01-18T05:40:16.193Z,382.60
2023-01-18T05:41:21.080Z,257.73
2023-01-18T05:42:23.735Z,349.77
2023-01-18T05:43:35.782Z,343.33
2023-01-18T05:44:39.289Z,132.23
2023-01-18T05:45:42.951Z,331.10
2023-01-18T05:46:46.449Z,268.35
2023-01-18T05:47:55.880Z,119.63
2023-01-18T05:49:00.994Z,227.68
2023-01-18T05:50:03.478Z,169.43
2023-01-18T05:51:09.844Z,151.57
2023-01-18T05:52:12.383Z,119.80
2023-01-18T05:53:23.913Z,70.30
2023-01-18T05:54:26.445Z,275.85
2023-01-18T05:55:30.128Z,77.32
2023-01-18T05:56:34.110Z,105.05
2023-01-18T05:57:36.783Z,177.27
2023-01-18T05:58:47.055Z,159.02
2023-01-18T05:59:55.854Z,110.50
2023-01-18T06:00:59.766Z,178.68
2023-01-18T06:02:02.330Z,178.70
2023-01-18T06:03:05.814Z,334.50
2023-01-18T06:04:11.257Z,249.02
2023-01-18T06:05:20.093Z,314.80
2023-01-18T06:06:23.538Z,162.70
2023-01-18T06:07:26.033Z,430.50
2023-01-18T06:08:29.694Z,303.02
2023-01-18T06:09:32.224Z,181.98
2023-01-18T06:10:41.884Z,269.30
2023-01-18T06:11:45.326Z,222.32
2023-01-18T06:12:48.161Z,423.77
2023-01-18T06:13:52.364Z,209.70
2023-01-18T06:14:54.876Z,194.15
2023-01-18T06:16:05.932Z,290.55
2023-01-18T06:17:09.331Z,90.70
2023-01-18T06:18:12.849Z,158.65
2023-01-18T06:19:17.951Z,107.70
2023-01-18T06:20:27.988Z,123.38
2023-01-18T06:21:32.051Z,218.65
2023-01-18T06:22:41.004Z,411.85
2023-01-18T06:23:44.469Z,201.80
2023-01-18T06:25:01.475Z,227.82
2023-01-18T06:26:17.986Z,401.88
2023-01-18T06:27:27.422Z,253.05
2023-01-18T06:28:37.855Z,265.00
2023-01-18T06:29:41.354Z,93.45
2023-01-18T06:30:43.901Z,103.47
2023-01-18T06:31:47.426Z,282.98
2023-01-18T06:32:57.303Z,488.02
2023-01-18T06:34:07.857Z,298.83
2023-01-18T06:35:11.777Z,209.18
2023-01-18T06:36:15.540Z,69.18
2023-01-18T06:37:18.074Z,386.88
2023-01-18T06:38:27.866Z,306.42
2023-01-18T06:39:30.386Z,163.90
2023-01-18T06:40:33.883Z,148.52
2023-01-18T06:41:37.365Z,80.22
2023-01-18T06:42:39.847Z,56.25
2023-01-18T06:43:49.867Z,161.85
2023-01-18T06:44:52.461Z,211.57
2023-01-18T06:45:56.513Z,288.65
2023-01-18T06:47:05.863Z,347.95
2023-01-18T06:48:09.298Z,494.40
2023-01-18T06:49:12.277Z,408.75
2023-01-18T06:50:17.774Z,419.50
2023-01-18T06:51:26.953Z,89.47
2023-01-18T06:52:30.400Z,100.03
2023-01-18T06:53:36.759Z,325.77
2023-01-18T06:54:40.327Z,380.20
2023-01-18T06:55:43.758Z,303.30
2023-01-18T06:56:54.869Z,257.85
2023-01-18T06:57:57.412Z,264.73
2023-01-18T06:59:01.182Z,170.13
2023-01-18T07:00:06.298Z,87.43
2023-01-18T07:01:09.968Z,158.70
2023-01-18T07:02:23.834Z,137.52
2023-01-18T07:03:26.725Z,118.47
2023-01-18T07:04:36.909Z,150.07
2023-01-18T07:05:40.729Z,134.52
2023-01-18T07:06:44.125Z,117.72
2023-01-18T07:07:47.600Z,311.13
2023-01-18T07:08:51.209Z,263.48
2023-01-18T07:09:59.841Z,177.88
2023-01-18T07:11:06.348Z,160.60
2023-01-18T07:12:09.436Z,267.00
2023-01-18T07:13:19.859Z,178.68
2023-01-18T07:14:28.864Z,150.75
2023-01-18T07:15:32.284Z,122.75
2023-01-18T07:16:34.792Z,175.05
2023-01-18T07:17:38.744Z,170.95
2023-01-18T07:18:50.890Z,73.30
2023-01-18T07:19:54.457Z,60.03
2023-01-18T07:20:59.097Z,57.20
2023-01-18T07:22:02.623Z,53.95
2023-01-18T07:23:05.129Z,51.42
2023-01-18T07:24:14.895Z,48.20
2023-01-18T07:25:18.847Z,44.03
2023-01-18T07:26:42.828Z,46.72
2023-01-18T07:27:46.247Z,39.85
2023-01-18T07:28:50.078Z,40.08
2023-01-18T07:29:58.878Z,32.10
2023-01-18T07:31:02.688Z,32.22
2023-01-18T07:32:05.452Z,32.17
2023-01-18T07:33:09.009Z,27.83
2023-01-18T07:34:17.882Z,30.52
2023-01-18T07:35:22.260Z,24.13
2023-01-18T07:36:26.178Z,30.05
2023-01-18T07:37:29.588Z,28.90
2023-01-18T07:38:32.155Z,29.20
2023-01-18T07:39:42.534Z,29.65
2023-01-18T07:40:46.733Z,28.20
2023-01-18T07:41:49.251Z,24.52
2023-01-18T07:42:58.806Z,25.13
2023-01-18T07:44:02.161Z,28.35
2023-01-18T07:45:14.860Z,32.35
2023-01-18T07:46:20.086Z,24.05
2023-01-18T07:47:23.569Z,29.35
2023-01-18T07:48:32.859Z,28.20
2023-01-18T07:49:36.309Z,24.15
2023-01-18T07:50:44.858Z,23.48
2023-01-18T07:51:49.588Z,24.05
2023-01-18T07:52:52.059Z,23.92
2023-01-18T07:54:02.861Z,24.13
2023-01-18T07:55:06.848Z,23.05
2023-01-18T07:56:19.896Z,24.02
2023-01-18T07:57:23.402Z,24.70
2023-01-18T07:58:26.814Z,24.95
2023-01-18T07:59:32.488Z,27.25
2023-01-18T08:00:35.057Z,27.42
2023-01-18T08:01:44.946Z,28.58
2023-01-18T08:02:54.367Z,27.83
2023-01-18T08:03:57.831Z,31.52
2023-01-18T08:05:00.520Z,37.85
2023-01-18T08:06:04.528Z,35.08
2023-01-18T08:07:15.873Z,32.80
2023-01-18T08:08:18.482Z,34.08
2023-01-18T08:09:21.989Z,40.97
2023-01-18T08:10:27.612Z,41.42
2023-01-18T08:11:37.870Z,49.55
2023-01-18T08:12:41.392Z,49.05
2023-01-18T08:13:44.829Z,56.58
2023-01-18T08:14:54.869Z,55.15
2023-01-18T08:16:06.940Z,71.43
2023-01-18T08:17:10.417Z,59.17
2023-01-18T08:18:14.789Z,70.85
2023-01-18T08:19:24.857Z,63.25
2023-01-18T08:20:27.400Z,56.10
2023-01-18T08:21:39.009Z,64.28
2023-01-18T08:22:43.772Z,53.88
2023-01-18T08:23:47.187Z,52.17
2023-01-18T08:24:49.731Z,57.63
2023-01-18T08:25:53.277Z,51.72
2023-01-18T08:27:09.884Z,51.45
2023-01-18T08:28:26.878Z,50.65
2023-01-18T08:29:30.305Z,50.97
2023-01-18T08:30:34.215Z,48.15
2023-01-18T08:31:37.708Z,50.35
2023-01-18T08:32:40.895Z,43.05
2023-01-18T08:33:52.876Z,47.80
2023-01-18T08:34:56.373Z,46.78
2023-01-18T08:35:58.898Z,46.15
2023-01-18T08:37:02.347Z,53.25
2023-01-18T08:38:06.455Z,50.05
2023-01-18T08:39:16.844Z,50.85
2023-01-18T08:40:19.583Z,49.35
2023-01-18T08:41:34.869Z,50.40
2023-01-18T08:42:38.347Z,46.13
2023-01-18T08:43:42.908Z,49.55
2023-01-18T08:44:48.089Z,42.25
2023-01-18T08:45:51.445Z,48.75
2023-01-18T08:47:01.849Z,52.85
2023-01-18T08:48:06.465Z,53.15
2023-01-18T08:49:09.895Z,52.00
2023-01-18T08:50:13.465Z,44.35
2023-01-18T08:51:18.179Z,46.58
2023-01-18T08:52:27.867Z,47.47
2023-01-18T08:53:32.832Z,46.95
2023-01-18T08:54:35.398Z,45.97
2023-01-18T08:55:40.463Z,43.00
2023-01-18T08:56:50.881Z,43.50
2023-01-18T08:58:03.867Z,45.75
2023-01-18T08:59:09.604Z,52.90
2023-01-18T09:00:13.747Z,49.42
2023-01-18T09:01:16.388Z,44.78
2023-01-18T09:02:25.896Z,49.55
2023-01-18T09:03:35.879Z,51.03
2023-01-18T09:04:38.384Z,51.88
2023-01-18T09:05:41.821Z,53.80
2023-01-18T09:06:44.937Z,47.15
2023-01-18T09:07:48.377Z,52.13
2023-01-18T09:08:59.911Z,55.53
2023-01-18T09:10:03.389Z,54.78
2023-01-18T09:11:07.661Z,55.40
2023-01-18T09:12:10.230Z,55.28
2023-01-18T09:13:19.891Z,49.80
2023-01-18T09:14:23.330Z,50.78
2023-01-18T09:15:27.093Z,52.17
2023-01-18T09:16:31.188Z,47.08
2023-01-18T09:17:34.136Z,49.47
2023-01-18T09:18:44.868Z,45.20
2023-01-18T09:19:47.377Z,45.42
2023-01-18T09:20:51.281Z,42.45
2023-01-18T09:21:54.672Z,45.03
2023-01-18T09:22:58.410Z,47.95
2023-01-18T09:24:09.963Z,44.35
2023-01-18T09:25:13.497Z,52.65
2023-01-18T09:26:24.046Z,55.67
2023-01-18T09:27:34.266Z,58.20
2023-01-18T09:28:37.058Z,57.10
2023-01-18T09:29:46.952Z,61.67
2023-01-18T09:30:50.346Z,61.25
2023-01-18T09:31:54.305Z,56.95
2023-01-18T09:32:59.011Z,52.45
2023-01-18T09:34:18.383Z,61.63
2023-01-18T09:35:28.891Z,56.60
2023-01-18T09:36:32.499Z,58.05
2023-01-18T09:37:35.938Z,55.15
2023-01-18T09:38:40.122Z,53.45
2023-01-18T09:39:52.678Z,59.83
2023-01-18T09:41:02.888Z,74.57
2023-01-18T09:42:06.343Z,61.90
2023-01-18T09:43:14.588Z,62.63
2023-01-18T09:44:22.279Z,57.90
2023-01-18T09:45:35.873Z,57.92
2023-01-18T09:46:41.982Z,51.42
2023-01-18T09:47:46.356Z,50.33
2023-01-18T09:48:53.032Z,47.10
2023-01-18T09:50:02.953Z,44.15
2023-01-18T09:51:08.802Z,45.28
2023-01-18T09:52:22.806Z,37.33
2023-01-18T09:53:31.693Z,35.28
2023-01-18T09:54:40.081Z,32.20
2023-01-18T09:55:55.865Z,29.77
2023-01-18T09:57:01.510Z,24.05
2023-01-18T09:58:18.970Z,22.20
2023-01-18T09:59:28.623Z,19.30
2023-01-18T10:00:33.824Z,18.90
2023-01-18T10:01:37.863Z,18.88
2023-01-18T10:02:41.001Z,15.73
2023-01-18T10:03:57.860Z,13.75
2023-01-18T10:05:04.691Z,8.70
2023-01-18T10:06:15.541Z,8.43
2023-01-18T10:07:20.368Z,11.00
2023-01-18T10:08:32.856Z,11.75
2023-01-18T10:09:38.500Z,14.90
2023-01-18T10:10:43.923Z,11.82
2023-01-18T10:11:54.433Z,11.50
2023-01-18T10:13:05.391Z,11.93
2023-01-18T10:14:16.940Z,11.40
2023-01-18T10:15:22.631Z,13.48
2023-01-18T10:16:25.752Z,11.43
2023-01-18T10:17:35.569Z,15.05
2023-01-18T10:18:45.790Z,15.05
2023-01-18T10:19:55.916Z,15.05
2023-01-18T10:21:00.166Z,19.45
2023-01-18T10:22:07.124Z,14.77
2023-01-18T10:23:13.593Z,16.67
2023-01-18T10:24:33.931Z,15.63
2023-01-18T10:25:39.367Z,17.80
2023-01-18T10:26:49.090Z,15.82
2023-01-18T10:28:14.597Z,15.75
2023-01-18T10:29:22.731Z,13.18
2023-01-18T10:30:36.839Z,17.00
2023-01-18T10:31:44.178Z,14.13
2023-01-18T10:32:50.916Z,16.38
2023-01-18T10:33:55.598Z,17.85
2023-01-18T10:34:58.560Z,13.77
2023-01-18T10:36:11.834Z,19.42
2023-01-18T10:37:19.056Z,18.63
2023-01-18T10:38:23.531Z,17.50
2023-01-18T10:39:30.849Z,18.73
2023-01-18T10:40:40.943Z,18.80
2023-01-18T10:41:45.436Z,19.85
2023-01-18T10:42:49.831Z,18.67
2023-01-18T10:43:54.584Z,26.13
2023-01-18T10:44:58.338Z,20.08
2023-01-18T10:46:08.007Z,23.85
2023-01-18T10:47:12.074Z,21.17
2023-01-18T10:48:34.848Z,19.80
2023-01-18T10:49:38.383Z,20.38
2023-01-18T10:50:46.095Z,18.42
2023-01-18T10:51:55.974Z,18.98
2023-01-18T10:52:59.817Z,17.98
2023-01-18T10:54:22.352Z,18.85
2023-01-18T10:55:25.977Z,21.33
2023-01-18T10:56:30.248Z,21.38
2023-01-18T10:57:42.986Z,20.38
2023-01-18T10:58:49.295Z,18.73
2023-01-18T11:00:01.052Z,20.58
2023-01-18T11:01:04.653Z,21.08
2023-01-18T11:02:15.927Z,23.35
2023-01-18T11:03:25.887Z,21.13
2023-01-18T11:04:29.556Z,19.33
2023-01-18T11:05:34.681Z,24.30
2023-01-18T11:06:46.628Z,22.70
2023-01-18T11:07:49.167Z,19.80
2023-01-18T11:08:59.902Z,20.40
2023-01-18T11:10:09.678Z,22.52
2023-01-18T11:11:18.238Z,21.08
2023-01-18T11:12:39.840Z,21.95
2023-01-18T11:13:50.925Z,20.33
2023-01-18T11:14:54.757Z,20.00
2023-01-18T11:16:22.228Z,21.35
2023-01-18T11:17:24.736Z,22.00
2023-01-18T11:18:28.779Z,21.88
2023-01-18T11:19:38.898Z,19.42
2023-01-18T11:20:51.253Z,17.90
2023-01-18T11:21:55.010Z,17.25
2023-01-18T11:22:59.175Z,22.65
2023-01-18T11:24:07.994Z,21.42
2023-01-18T11:25:23.901Z,19.90
2023-01-18T11:26:47.887Z,20.75
2023-01-18T11:27:57.472Z,18.27
2023-01-18T11:29:02.010Z,19.35
2023-01-18T11:30:12.896Z,14.45
2023-01-18T11:31:24.175Z,17.48
2023-01-18T11:32:28.934Z,13.50
2023-01-18T11:33:31.627Z,15.82
2023-01-18T11:34:36.180Z,12.77
2023-01-18T11:35:38.784Z,15.45
2023-01-18T11:36:49.954Z,17.67
2023-01-18T11:37:52.614Z,16.83
2023-01-18T11:38:56.096Z,10.63
2023-01-18T11:39:59.787Z,13.73
2023-01-18T11:41:13.910Z,13.85
2023-01-18T11:42:26.438Z,13.40
2023-01-18T11:43:35.941Z,15.85
2023-01-18T11:44:43.193Z,14.13
2023-01-18T11:45:53.544Z,12.98
2023-01-18T11:46:58.017Z,16.35
2023-01-18T11:48:05.850Z,15.93
2023-01-18T11:49:19.864Z,20.00
2023-01-18T11:50:34.946Z,18.50
2023-01-18T11:51:40.169Z,14.63
2023-01-18T11:52:46.820Z,17.35
2023-01-18T11:53:55.452Z,13.07
2023-01-18T11:55:02.132Z,13.65
2023-01-18T11:56:16.931Z,16.02
2023-01-18T11:57:20.399Z,13.52
2023-01-18T11:58:25.464Z,16.15
2023-01-18T11:59:31.158Z,19.30
2023-01-18T12:00:42.588Z,20.88
2023-01-18T12:02:10.983Z,21.50
2023-01-18T12:03:27.159Z,20.38
2023-01-18T12:04:37.258Z,17.55
2023-01-18T12:05:46.001Z,18.52
2023-01-18T12:06:59.855Z,15.38
2023-01-18T12:08:13.003Z,14.63
2023-01-18T12:09:34.318Z,16.73
2023-01-18T12:10:42.873Z,15.75
2023-01-18T12:12:03.624Z,14.38
2023-01-18T12:13:22.717Z,15.23
2023-01-18T12:14:33.349Z,13.32
2023-01-18T12:15:46.504Z,13.88
2023-01-18T12:17:06.533Z,14.88
2023-01-18T12:18:19.444Z,12.98
2023-01-18T12:19:43.843Z,13.60
2023-01-18T12:20:53.780Z,14.32
2023-01-18T12:22:12.923Z,15.75
2023-01-18T12:23:41.925Z,17.65
2023-01-18T12:24:50.604Z,18.13
2023-01-18T12:26:11.766Z,21.38
2023-01-18T12:27:33.020Z,20.23
2023-01-18T12:28:47.907Z,19.40
2023-01-18T12:30:13.994Z,19.30
2023-01-18T12:31:22.339Z,20.13
2023-01-18T12:32:32.160Z,20.92
2023-01-18T12:33:47.922Z,19.80
2023-01-18T12:34:56.263Z,22.52
2023-01-18T12:36:13.020Z,21.38
2023-01-18T12:37:28.584Z,17.70
2023-01-18T12:38:32.622Z,20.38
2023-01-18T12:39:49.867Z,23.35
2023-01-18T12:41:08.205Z,20.73
2023-01-18T12:42:15.263Z,19.38
2023-01-18T12:43:33.595Z,17.70
2023-01-18T12:45:01.919Z,19.25
2023-01-18T12:46:07.225Z,21.88
2023-01-18T12:47:21.664Z,22.23
2023-01-18T12:48:28.381Z,17.80
2023-01-18T12:49:41.073Z,17.13
2023-01-18T12:50:45.146Z,15.60
2023-01-18T12:52:12.920Z,18.60
2023-01-18T12:53:25.719Z,14.52
2023-01-18T12:54:30.676Z,14.98
2023-01-18T12:55:36.284Z,12.75
2023-01-18T12:56:40.578Z,17.23
2023-01-18T12:57:50.877Z,14.82
2023-01-18T12:58:56.241Z,14.93
2023-01-18T13:00:00.648Z,14.63
2023-01-18T13:01:06.789Z,13.13
2023-01-18T13:02:28.932Z,13.75
2023-01-18T13:03:37.831Z,17.38
2023-01-18T13:04:44.595Z,18.02
2023-01-18T13:05:52.616Z,19.92
2023-01-18T13:06:59.041Z,15.82
2023-01-18T13:08:12.895Z,15.07
2023-01-18T13:09:17.929Z,16.38
2023-01-18T13:10:23.286Z,15.27
2023-01-18T13:11:28.254Z,15.80
2023-01-18T13:12:39.897Z,15.73
2023-01-18T13:13:51.889Z,14.80
2023-01-18T13:15:05.120Z,15.43
2023-01-18T13:16:17.015Z,17.90
2023-01-18T13:17:22.558Z,16.20
2023-01-18T13:18:33.898Z,15.48
2023-01-18T13:19:41.281Z,15.52
2023-01-18T13:20:50.719Z,18.08
2023-01-18T13:22:15.914Z,15.45
2023-01-18T13:23:22.579Z,16.92
2023-01-18T13:24:36.913Z,15.40
2023-01-18T13:25:48.511Z,16.30
2023-01-18T13:26:58.009Z,14.25
2023-01-18T13:28:23.941Z,15.90
2023-01-18T13:29:29.717Z,14.57
2023-01-18T13:30:33.415Z,13.63
2023-01-18T13:31:37.172Z,13.55
2023-01-18T13:32:42.482Z,13.82
2023-01-18T13:33:52.939Z,11.20
2023-01-18T13:35:19.110Z,12.95
2023-01-18T13:36:23.857Z,16.17
2023-01-18T13:37:41.982Z,11.85
2023-01-18T13:38:57.013Z,14.55
2023-01-18T13:40:00.734Z,14.18
2023-01-18T13:41:05.672Z,15.05
2023-01-18T13:42:27.717Z,17.90
2023-01-18T13:43:38.499Z,18.10
2023-01-18T13:44:43.647Z,17.48
2023-01-18T13:46:02.383Z,18.77
2023-01-18T13:47:25.784Z,18.30
2023-01-18T13:48:54.947Z,14.40
2023-01-18T13:49:59.998Z,15.55
2023-01-18T13:51:03.463Z,20.98
2023-01-18T13:52:28.143Z,18.00
2023-01-18T13:53:49.072Z,19.52
2023-01-18T13:55:10.466Z,18.80
2023-01-18T13:56:27.751Z,16.88
2023-01-18T13:57:38.901Z,18.25
2023-01-18T13:58:53.102Z,19.25
2023-01-18T13:59:56.910Z,21.73
2023-01-18T14:01:03.496Z,25.25
2023-01-18T14:02:14.927Z,22.65
2023-01-18T14:03:23.644Z,22.92
2023-01-18T14:04:36.992Z,20.30
2023-01-18T14:05:45.079Z,21.73
2023-01-18T14:06:48.996Z,18.85
2023-01-18T14:07:53.844Z,17.55
2023-01-18T14:09:04.942Z,24.98
2023-01-18T14:10:09.380Z,20.90
2023-01-18T14:11:25.060Z,17.65
2023-01-18T14:12:46.875Z,22.08
2023-01-18T14:14:09.937Z,17.42
2023-01-18T14:15:24.399Z,22.65
2023-01-18T14:16:29.144Z,20.80
2023-01-18T14:17:36.844Z,24.83
2023-01-18T14:18:57.110Z,20.15
2023-01-18T14:20:11.197Z,24.17
2023-01-18T14:21:23.260Z,26.73
2023-01-18T14:22:41.010Z,21.40
2023-01-18T14:24:12.973Z,21.65
2023-01-18T14:25:26.540Z,22.95
2023-01-18T14:26:30.035Z,19.92
2023-01-18T14:27:56.944Z,25.50
2023-01-18T14:29:01.387Z,22.23
2023-01-18T14:30:12.944Z,22.13
2023-01-18T14:31:18.055Z,22.13
2023-01-18T14:32:23.228Z,23.48
2023-01-18T14:33:28.531Z,19.27
2023-01-18T14:34:39.175Z,21.73
2023-01-18T14:35:58.974Z,20.33